sensor_id;sensor_type;location;lat;lon;timestamp;pressure;altitude;pressure_sealevel;temperature;humidity
12951;BME280;6540;50.858;7.232;2023-02-19T00:01:39;51894.88;;;-142.34;34.92
12951;BME280;6540;50.858;7.232;2023-02-19T00:04:09;51878.75;;;-142.34;34.99
12951;BME280;6540;50.858;7.232;2023-02-19T00:06:35;51866.66;;;-142.34;33.53
12951;BME280;6540;50.858;7.232;2023-02-19T00:09:02;51880.78;;;-142.34;33.87
12951;BME280;6540;50.858;7.232;2023-02-19T00:11:30;51890.84;;;-142.34;35.08
12951;BME280;6540;50.858;7.232;2023-02-19T00:13:57;51886.81;;;-142.34;35.22
12951;BME280;6540;50.858;7.232;2023-02-19T00:18:50;51919.09;;;-142.34;34.58
12951;BME280;6540;50.858;7.232;2023-02-19T00:21:16;51882.78;;;-142.34;35.98
12951;BME280;6540;50.858;7.232;2023-02-19T00:23:41;51919.09;;;-142.34;34.52
12951;BME280;6540;50.858;7.232;2023-02-19T00:26:09;51852.53;;;-142.34;33.75
12951;BME280;6540;50.858;7.232;2023-02-19T00:28:35;51890.84;;;-142.34;35.23
12951;BME280;6540;50.858;7.232;2023-02-19T00:31:21;51894.88;;;-142.34;35.57
12951;BME280;6540;50.858;7.232;2023-02-19T00:33:48;51876.72;;;-142.34;34.50
12951;BME280;6540;50.858;7.232;2023-02-19T00:36:14;51874.72;;;-142.34;34.63
12951;BME280;6540;50.858;7.232;2023-02-19T00:38:41;51884.81;;;-142.34;34.71
12951;BME280;6540;50.858;7.232;2023-02-19T00:41:08;51896.91;;;-142.34;34.28
12951;BME280;6540;50.858;7.232;2023-02-19T00:46:16;51874.72;;;-142.34;36.17
12951;BME280;6540;50.858;7.232;2023-02-19T00:48:42;51882.78;;;-142.34;34.72
12951;BME280;6540;50.858;7.232;2023-02-19T00:51:08;51878.75;;;-142.34;35.74
12951;BME280;6540;50.858;7.232;2023-02-19T00:53:33;51907.00;;;-142.34;35.38
12951;BME280;6540;50.858;7.232;2023-02-19T00:55:58;51907.00;;;-142.34;35.19
12951;BME280;6540;50.858;7.232;2023-02-19T00:58:24;51892.88;;;-142.34;35.11
12951;BME280;6540;50.858;7.232;2023-02-19T01:00:49;51907.00;;;-142.34;35.16
12951;BME280;6540;50.858;7.232;2023-02-19T01:03:15;51886.81;;;-142.34;36.00
12951;BME280;6540;50.858;7.232;2023-02-19T01:05:40;51915.06;;;-142.34;34.71
12951;BME280;6540;50.858;7.232;2023-02-19T01:08:05;51880.78;;;-142.34;34.60
12951;BME280;6540;50.858;7.232;2023-02-19T01:10:31;51902.97;;;-142.34;35.99
12951;BME280;6540;50.858;7.232;2023-02-19T01:12:56;51890.84;;;-142.34;34.63
12951;BME280;6540;50.858;7.232;2023-02-19T01:15:21;51890.84;;;-142.34;34.49
12951;BME280;6540;50.858;7.232;2023-02-19T01:17:47;51872.69;;;-142.34;34.11
12951;BME280;6540;50.858;7.232;2023-02-19T01:20:12;51878.75;;;-142.34;33.35
12951;BME280;6540;50.858;7.232;2023-02-19T01:22:38;51884.81;;;-142.34;34.35
12951;BME280;6540;50.858;7.232;2023-02-19T01:25:03;51907.00;;;-142.34;34.81
12951;BME280;6540;50.858;7.232;2023-02-19T01:27:29;51894.88;;;-142.34;35.16
12951;BME280;6540;50.858;7.232;2023-02-19T01:29:54;51923.13;;;-142.34;35.64
12951;BME280;6540;50.858;7.232;2023-02-19T01:32:19;51911.03;;;-142.34;34.53
12951;BME280;6540;50.858;7.232;2023-02-19T01:34:45;51870.69;;;-142.34;35.96
12951;BME280;6540;50.858;7.232;2023-02-19T01:37:10;51915.06;;;-142.34;33.10
12951;BME280;6540;50.858;7.232;2023-02-19T01:39:37;51917.06;;;-142.34;36.03
12951;BME280;6540;50.858;7.232;2023-02-19T01:42:04;51890.84;;;-142.34;33.46
12951;BME280;6540;50.858;7.232;2023-02-19T01:46:55;51882.78;;;-142.34;34.21
12951;BME280;6540;50.858;7.232;2023-02-19T01:49:42;51880.78;;;-142.34;33.73
12951;BME280;6540;50.858;7.232;2023-02-19T01:52:17;51888.84;;;-142.34;34.82
12951;BME280;6540;50.858;7.232;2023-02-19T01:54:46;51858.56;;;-142.34;35.33
12951;BME280;6540;50.858;7.232;2023-02-19T01:57:18;51870.69;;;-142.34;35.18
12951;BME280;6540;50.858;7.232;2023-02-19T01:59:46;51862.63;;;-142.34;35.70
12951;BME280;6540;50.858;7.232;2023-02-19T02:02:14;51880.78;;;-142.34;34.49
12951;BME280;6540;50.858;7.232;2023-02-19T02:04:39;51886.81;;;-142.34;34.48
12951;BME280;6540;50.858;7.232;2023-02-19T02:07:05;51882.78;;;-142.34;33.29
12951;BME280;6540;50.858;7.232;2023-02-19T02:09:54;51886.81;;;-142.34;34.70
12951;BME280;6540;50.858;7.232;2023-02-19T02:12:38;51898.94;;;-142.34;34.39
12951;BME280;6540;50.858;7.232;2023-02-19T02:15:03;51866.66;;;-142.34;33.83
12951;BME280;6540;50.858;7.232;2023-02-19T02:18:08;51888.84;;;-142.34;33.58
12951;BME280;6540;50.858;7.232;2023-02-19T02:21:01;51850.50;;;-142.34;34.27
12951;BME280;6540;50.858;7.232;2023-02-19T02:23:54;51892.88;;;-142.34;34.05
12951;BME280;6540;50.858;7.232;2023-02-19T02:32:14;51898.94;;;-142.34;34.33
12951;BME280;6540;50.858;7.232;2023-02-19T02:34:49;51890.84;;;-142.34;33.07
12951;BME280;6540;50.858;7.232;2023-02-19T02:37:17;51898.94;;;-142.34;34.86
12951;BME280;6540;50.858;7.232;2023-02-19T02:39:44;51900.94;;;-142.34;35.98
12951;BME280;6540;50.858;7.232;2023-02-19T02:42:11;51898.94;;;-142.34;35.46
12951;BME280;6540;50.858;7.232;2023-02-19T02:44:52;51874.72;;;-142.34;35.40
12951;BME280;6540;50.858;7.232;2023-02-19T02:47:52;51890.84;;;-142.34;34.40
12951;BME280;6540;50.858;7.232;2023-02-19T02:50:23;51890.84;;;-142.34;33.82
12951;BME280;6540;50.858;7.232;2023-02-19T02:52:58;51902.97;;;-142.34;33.75
12951;BME280;6540;50.858;7.232;2023-02-19T02:55:44;51896.91;;;-142.34;36.67
12951;BME280;6540;50.858;7.232;2023-02-19T02:58:12;51886.81;;;-142.34;35.30
12951;BME280;6540;50.858;7.232;2023-02-19T03:00:41;51896.91;;;-142.34;33.41
12951;BME280;6540;50.858;7.232;2023-02-19T03:03:27;51927.16;;;-142.34;35.39
12951;BME280;6540;50.858;7.232;2023-02-19T03:05:58;51902.97;;;-142.34;36.63
12951;BME280;6540;50.858;7.232;2023-02-19T03:08:37;51888.84;;;-142.34;36.65
12951;BME280;6540;50.858;7.232;2023-02-19T03:11:06;51927.16;;;-142.34;36.78
12951;BME280;6540;50.858;7.232;2023-02-19T03:13:59;51886.81;;;-142.34;36.83
12951;BME280;6540;50.858;7.232;2023-02-19T03:16:48;51925.16;;;-142.34;36.15
12951;BME280;6540;50.858;7.232;2023-02-19T03:19:39;51888.84;;;-142.34;36.44
12951;BME280;6540;50.858;7.232;2023-02-19T03:22:11;51902.97;;;-142.34;35.13
12951;BME280;6540;50.858;7.232;2023-02-19T03:24:48;51902.97;;;-142.34;33.27
12951;BME280;6540;50.858;7.232;2023-02-19T03:27:36;51870.69;;;-142.34;34.77
12951;BME280;6540;50.858;7.232;2023-02-19T03:30:12;51909.00;;;-142.34;35.46
12951;BME280;6540;50.858;7.232;2023-02-19T03:33:12;51898.94;;;-142.34;37.81
12951;BME280;6540;50.858;7.232;2023-02-19T03:36:09;51947.34;;;-142.34;34.47
12951;BME280;6540;50.858;7.232;2023-02-19T03:38:38;51902.97;;;-142.34;34.63
12951;BME280;6540;50.858;7.232;2023-02-19T03:41:34;51894.88;;;-142.34;36.27
12951;BME280;6540;50.858;7.232;2023-02-19T03:47:08;51923.13;;;-142.34;36.56
12951;BME280;6540;50.858;7.232;2023-02-19T03:58:37;51894.88;;;-142.34;36.57
12951;BME280;6540;50.858;7.232;2023-02-19T04:01:08;51933.22;;;-142.34;37.69
12951;BME280;6540;50.858;7.232;2023-02-19T04:06:09;51900.94;;;-142.34;34.85
12951;BME280;6540;50.858;7.232;2023-02-19T04:08:37;51913.03;;;-142.34;35.54
12951;BME280;6540;50.858;7.232;2023-02-19T04:11:05;51890.84;;;-142.34;34.91
12951;BME280;6540;50.858;7.232;2023-02-19T04:13:36;51933.22;;;-142.34;35.49
12951;BME280;6540;50.858;7.232;2023-02-19T04:16:12;51896.91;;;-142.34;34.67
12951;BME280;6540;50.858;7.232;2023-02-19T04:18:43;51882.78;;;-142.34;34.41
12951;BME280;6540;50.858;7.232;2023-02-19T04:21:12;51898.94;;;-142.34;34.38
12951;BME280;6540;50.858;7.232;2023-02-19T04:23:41;51917.06;;;-142.34;35.18
12951;BME280;6540;50.858;7.232;2023-02-19T04:26:08;51937.25;;;-142.34;35.26
12951;BME280;6540;50.858;7.232;2023-02-19T04:28:34;51911.03;;;-142.34;35.41
12951;BME280;6540;50.858;7.232;2023-02-19T04:31:01;51931.19;;;-142.34;35.12
12951;BME280;6540;50.858;7.232;2023-02-19T04:33:26;51933.22;;;-142.34;34.76
12951;BME280;6540;50.858;7.232;2023-02-19T04:35:52;51878.75;;;-142.34;35.59
12951;BME280;6540;50.858;7.232;2023-02-19T04:38:17;51884.81;;;-142.34;35.47
12951;BME280;6540;50.858;7.232;2023-02-19T04:40:43;51935.25;;;-142.34;35.21
12951;BME280;6540;50.858;7.232;2023-02-19T04:43:08;51927.16;;;-142.34;35.94
12951;BME280;6540;50.858;7.232;2023-02-19T04:45:36;51945.31;;;-142.34;35.89
12951;BME280;6540;50.858;7.232;2023-02-19T04:48:01;51902.97;;;-142.34;35.93
12951;BME280;6540;50.858;7.232;2023-02-19T04:50:27;51917.06;;;-142.34;35.92
12951;BME280;6540;50.858;7.232;2023-02-19T04:52:52;51894.88;;;-142.34;35.74
12951;BME280;6540;50.858;7.232;2023-02-19T04:55:17;51890.84;;;-142.34;37.02
12951;BME280;6540;50.858;7.232;2023-02-19T04:57:43;51943.31;;;-142.34;36.88
12951;BME280;6540;50.858;7.232;2023-02-19T05:00:09;51927.16;;;-142.34;36.45
12951;BME280;6540;50.858;7.232;2023-02-19T05:02:34;51931.19;;;-142.34;36.66
12951;BME280;6540;50.858;7.232;2023-02-19T05:05:00;51917.06;;;-142.34;36.49
12951;BME280;6540;50.858;7.232;2023-02-19T05:07:25;51949.34;;;-142.34;36.25
12951;BME280;6540;50.858;7.232;2023-02-19T05:09:51;51951.38;;;-142.34;38.13
12951;BME280;6540;50.858;7.232;2023-02-19T05:12:16;51917.06;;;-142.34;37.81
12951;BME280;6540;50.858;7.232;2023-02-19T05:14:41;51911.03;;;-142.34;36.86
12951;BME280;6540;50.858;7.232;2023-02-19T05:17:06;51933.22;;;-142.34;37.43
12951;BME280;6540;50.858;7.232;2023-02-19T05:19:32;51947.34;;;-142.34;36.40
12951;BME280;6540;50.858;7.232;2023-02-19T05:21:57;51923.13;;;-142.34;34.36
12951;BME280;6540;50.858;7.232;2023-02-19T05:24:22;51919.09;;;-142.34;34.00
12951;BME280;6540;50.858;7.232;2023-02-19T05:26:49;51951.38;;;-142.34;35.47
12951;BME280;6540;50.858;7.232;2023-02-19T05:29:14;51977.59;;;-142.34;36.20
12951;BME280;6540;50.858;7.232;2023-02-19T05:31:40;51929.19;;;-142.34;35.23
12951;BME280;6540;50.858;7.232;2023-02-19T05:34:05;51915.06;;;-142.34;34.43
12951;BME280;6540;50.858;7.232;2023-02-19T05:36:31;51900.94;;;-142.34;32.96
12951;BME280;6540;50.858;7.232;2023-02-19T05:38:57;51904.97;;;-142.34;34.49
12951;BME280;6540;50.858;7.232;2023-02-19T05:41:24;51927.16;;;-142.34;35.18
12951;BME280;6540;50.858;7.232;2023-02-19T05:43:50;51931.19;;;-142.34;34.97
12951;BME280;6540;50.858;7.232;2023-02-19T05:46:18;51898.94;;;-142.34;34.51
12951;BME280;6540;50.858;7.232;2023-02-19T05:48:44;51898.94;;;-142.34;34.44
12951;BME280;6540;50.858;7.232;2023-02-19T05:51:13;51907.00;;;-142.34;33.41
12951;BME280;6540;50.858;7.232;2023-02-19T05:53:39;51907.00;;;-142.34;33.66
12951;BME280;6540;50.858;7.232;2023-02-19T05:58:45;51923.13;;;-142.34;35.20
12951;BME280;6540;50.858;7.232;2023-02-19T06:01:15;51907.00;;;-142.34;34.85
12951;BME280;6540;50.858;7.232;2023-02-19T06:03:41;51937.25;;;-142.34;35.30
12951;BME280;6540;50.858;7.232;2023-02-19T06:06:07;51882.78;;;-142.34;34.20
12951;BME280;6540;50.858;7.232;2023-02-19T06:08:32;51909.00;;;-142.34;35.50
12951;BME280;6540;50.858;7.232;2023-02-19T06:10:57;51921.13;;;-142.34;36.17
12951;BME280;6540;50.858;7.232;2023-02-19T06:13:23;51933.22;;;-142.34;35.08
12951;BME280;6540;50.858;7.232;2023-02-19T06:15:48;51900.94;;;-142.34;35.50
12951;BME280;6540;50.858;7.232;2023-02-19T06:18:13;51947.34;;;-142.34;34.48
12951;BME280;6540;50.858;7.232;2023-02-19T06:20:39;51915.06;;;-142.34;36.41
12951;BME280;6540;50.858;7.232;2023-02-19T06:23:04;51919.09;;;-142.34;35.08
12951;BME280;6540;50.858;7.232;2023-02-19T06:25:29;51907.00;;;-142.34;33.25
12951;BME280;6540;50.858;7.232;2023-02-19T06:27:54;51921.13;;;-142.34;34.41
12951;BME280;6540;50.858;7.232;2023-02-19T06:30:20;51933.22;;;-142.34;35.28
12951;BME280;6540;50.858;7.232;2023-02-19T06:32:45;51919.09;;;-142.34;32.92
12951;BME280;6540;50.858;7.232;2023-02-19T06:35:10;51943.31;;;-142.34;33.88
12951;BME280;6540;50.858;7.232;2023-02-19T06:37:36;51898.94;;;-142.34;32.97
12951;BME280;6540;50.858;7.232;2023-02-19T06:40:01;51860.59;;;-142.34;33.84
12951;BME280;6540;50.858;7.232;2023-02-19T06:42:30;51894.88;;;-142.34;35.75
12951;BME280;6540;50.858;7.232;2023-02-19T06:44:55;51907.00;;;-142.34;35.07
12951;BME280;6540;50.858;7.232;2023-02-19T06:47:21;51925.16;;;-142.34;35.07
12951;BME280;6540;50.858;7.232;2023-02-19T06:49:46;51923.13;;;-142.34;35.33
12951;BME280;6540;50.858;7.232;2023-02-19T06:52:11;51943.31;;;-142.34;35.22
12951;BME280;6540;50.858;7.232;2023-02-19T06:54:37;51925.16;;;-142.34;35.34
12951;BME280;6540;50.858;7.232;2023-02-19T06:57:02;51870.69;;;-142.34;37.09
12951;BME280;6540;50.858;7.232;2023-02-19T06:59:27;51894.88;;;-142.34;34.58
12951;BME280;6540;50.858;7.232;2023-02-19T07:01:53;51921.13;;;-142.34;32.71
12951;BME280;6540;50.858;7.232;2023-02-19T07:04:18;51919.09;;;-142.34;33.53
12951;BME280;6540;50.858;7.232;2023-02-19T07:06:44;51947.34;;;-142.34;35.88
12951;BME280;6540;50.858;7.232;2023-02-19T07:09:09;51939.28;;;-142.34;35.88
12951;BME280;6540;50.858;7.232;2023-02-19T07:11:36;51923.13;;;-142.34;34.82
12951;BME280;6540;50.858;7.232;2023-02-19T07:14:04;51894.88;;;-142.34;35.76
12951;BME280;6540;50.858;7.232;2023-02-19T07:16:32;51923.13;;;-142.34;35.18
12951;BME280;6540;50.858;7.232;2023-02-19T07:18:58;51902.97;;;-142.34;34.62
12951;BME280;6540;50.858;7.232;2023-02-19T07:21:25;51911.03;;;-142.34;35.15
12951;BME280;6540;50.858;7.232;2023-02-19T07:23:50;51915.06;;;-142.34;33.40
12951;BME280;6540;50.858;7.232;2023-02-19T07:26:18;51907.00;;;-142.34;34.31
12951;BME280;6540;50.858;7.232;2023-02-19T07:28:44;51902.97;;;-142.34;34.97
12951;BME280;6540;50.858;7.232;2023-02-19T07:31:10;51874.72;;;-142.34;32.59
12951;BME280;6540;50.858;7.232;2023-02-19T07:33:36;51878.75;;;-142.34;32.52
12951;BME280;6540;50.858;7.232;2023-02-19T07:36:02;51884.81;;;-142.34;33.01
12951;BME280;6540;50.858;7.232;2023-02-19T07:38:27;51890.84;;;-142.34;33.29
12951;BME280;6540;50.858;7.232;2023-02-19T07:40:55;51902.97;;;-142.34;34.97
12951;BME280;6540;50.858;7.232;2023-02-19T07:43:21;51911.03;;;-142.34;34.40
12951;BME280;6540;50.858;7.232;2023-02-19T07:45:47;51927.16;;;-142.34;35.09
12951;BME280;6540;50.858;7.232;2023-02-19T07:48:13;51874.72;;;-142.34;33.03
12951;BME280;6540;50.858;7.232;2023-02-19T07:50:38;51892.88;;;-142.34;33.51
12951;BME280;6540;50.858;7.232;2023-02-19T07:53:04;51902.97;;;-142.34;34.45
12951;BME280;6540;50.858;7.232;2023-02-19T07:55:30;51874.72;;;-142.34;33.78
12951;BME280;6540;50.858;7.232;2023-02-19T07:57:57;51886.81;;;-142.34;34.03
12951;BME280;6540;50.858;7.232;2023-02-19T08:00:23;51907.00;;;-142.34;33.92
12951;BME280;6540;50.858;7.232;2023-02-19T08:02:50;51913.03;;;-142.34;33.85
12951;BME280;6540;50.858;7.232;2023-02-19T08:05:29;51880.78;;;-142.34;34.90
12951;BME280;6540;50.858;7.232;2023-02-19T08:07:55;51880.78;;;-142.34;32.78
12951;BME280;6540;50.858;7.232;2023-02-19T08:10:21;51911.03;;;-142.34;34.84
12951;BME280;6540;50.858;7.232;2023-02-19T08:13:07;51915.06;;;-142.34;33.52
12951;BME280;6540;50.858;7.232;2023-02-19T08:15:44;51884.81;;;-142.34;32.11
12951;BME280;6540;50.858;7.232;2023-02-19T08:18:12;51882.78;;;-142.34;32.83
12951;BME280;6540;50.858;7.232;2023-02-19T08:20:38;51882.78;;;-142.34;32.55
12951;BME280;6540;50.858;7.232;2023-02-19T08:23:04;51882.78;;;-142.34;33.71
12951;BME280;6540;50.858;7.232;2023-02-19T08:25:30;51898.94;;;-142.34;34.08
12951;BME280;6540;50.858;7.232;2023-02-19T08:27:56;51898.94;;;-142.34;31.97
12951;BME280;6540;50.858;7.232;2023-02-19T08:30:21;51876.72;;;-142.34;32.64
12951;BME280;6540;50.858;7.232;2023-02-19T08:32:47;51858.56;;;-142.34;32.93
12951;BME280;6540;50.858;7.232;2023-02-19T08:35:12;51882.78;;;-142.34;32.46
12951;BME280;6540;50.858;7.232;2023-02-19T08:37:38;51892.88;;;-142.34;33.60
12951;BME280;6540;50.858;7.232;2023-02-19T08:40:04;51902.97;;;-142.34;34.12
12951;BME280;6540;50.858;7.232;2023-02-19T08:42:29;51921.13;;;-142.34;34.00
12951;BME280;6540;50.858;7.232;2023-02-19T08:44:55;51882.78;;;-142.34;33.03
12951;BME280;6540;50.858;7.232;2023-02-19T08:47:21;51858.56;;;-142.34;32.91
12951;BME280;6540;50.858;7.232;2023-02-19T08:49:47;51882.78;;;-142.34;34.04
12951;BME280;6540;50.858;7.232;2023-02-19T08:52:12;51870.69;;;-142.34;32.69
12951;BME280;6540;50.858;7.232;2023-02-19T08:54:37;51902.97;;;-142.34;33.49
12951;BME280;6540;50.858;7.232;2023-02-19T08:57:03;51896.91;;;-142.34;33.21
12951;BME280;6540;50.858;7.232;2023-02-19T08:59:29;51882.78;;;-142.34;32.12
12951;BME280;6540;50.858;7.232;2023-02-19T09:01:54;51890.84;;;-142.34;32.43
12951;BME280;6540;50.858;7.232;2023-02-19T09:04:20;51862.63;;;-142.34;34.29
12951;BME280;6540;50.858;7.232;2023-02-19T09:06:45;51868.66;;;-142.34;33.45
12951;BME280;6540;50.858;7.232;2023-02-19T09:09:10;51915.06;;;-142.34;32.36
12951;BME280;6540;50.858;7.232;2023-02-19T09:11:39;51882.78;;;-142.34;32.84
12951;BME280;6540;50.858;7.232;2023-02-19T09:14:04;51852.53;;;-142.34;31.55
12951;BME280;6540;50.858;7.232;2023-02-19T09:16:32;51866.66;;;-142.34;33.66
12951;BME280;6540;50.858;7.232;2023-02-19T09:18:58;51860.59;;;-142.34;33.67
12951;BME280;6540;50.858;7.232;2023-02-19T09:21:23;51882.78;;;-142.34;33.70
12951;BME280;6540;50.858;7.232;2023-02-19T09:23:49;51894.88;;;-142.34;32.29
12951;BME280;6540;50.858;7.232;2023-02-19T09:26:14;51874.72;;;-142.34;34.50
12951;BME280;6540;50.858;7.232;2023-02-19T09:28:39;51882.78;;;-142.34;34.44
12951;BME280;6540;50.858;7.232;2023-02-19T09:31:08;51842.44;;;-142.34;33.69
12951;BME280;6540;50.858;7.232;2023-02-19T09:33:35;51870.69;;;-142.34;32.72
12951;BME280;6540;50.858;7.232;2023-02-19T09:36:01;51864.63;;;-142.34;33.09
12951;BME280;6540;50.858;7.232;2023-02-19T09:38:26;51876.72;;;-142.34;32.45
12951;BME280;6540;50.858;7.232;2023-02-19T09:40:52;51872.69;;;-142.34;32.10
12951;BME280;6540;50.858;7.232;2023-02-19T09:43:20;51852.53;;;-142.34;32.33
12951;BME280;6540;50.858;7.232;2023-02-19T09:45:46;51864.63;;;-142.34;33.24
12951;BME280;6540;50.858;7.232;2023-02-19T09:48:12;51868.66;;;-142.34;33.68
12951;BME280;6540;50.858;7.232;2023-02-19T09:50:46;51854.53;;;-142.34;33.42
12951;BME280;6540;50.858;7.232;2023-02-19T09:53:22;51872.69;;;-142.34;32.60
12951;BME280;6540;50.858;7.232;2023-02-19T09:55:52;51878.75;;;-142.34;31.82
12951;BME280;6540;50.858;7.232;2023-02-19T10:00:48;51858.56;;;-142.34;32.64
12951;BME280;6540;50.858;7.232;2023-02-19T10:03:20;51876.72;;;-142.34;32.18
12951;BME280;6540;50.858;7.232;2023-02-19T10:05:47;51882.78;;;-142.34;34.05
12951;BME280;6540;50.858;7.232;2023-02-19T10:08:17;51890.84;;;-142.34;33.54
12951;BME280;6540;50.858;7.232;2023-02-19T10:10:44;51842.44;;;-142.34;31.16
12951;BME280;6540;50.858;7.232;2023-02-19T10:13:21;51854.53;;;-142.34;33.74
12951;BME280;6540;50.858;7.232;2023-02-19T10:15:56;51882.78;;;-142.34;33.55
12951;BME280;6540;50.858;7.232;2023-02-19T10:18:24;51866.66;;;-142.34;33.72
12951;BME280;6540;50.858;7.232;2023-02-19T10:20:53;51866.66;;;-142.34;33.18
12951;BME280;6540;50.858;7.232;2023-02-19T10:23:19;51874.72;;;-142.34;33.11
12951;BME280;6540;50.858;7.232;2023-02-19T10:25:56;51862.63;;;-142.34;32.31
12951;BME280;6540;50.858;7.232;2023-02-19T10:28:24;51880.78;;;-142.34;31.62
12951;BME280;6540;50.858;7.232;2023-02-19T10:30:54;51878.75;;;-142.34;31.96
12951;BME280;6540;50.858;7.232;2023-02-19T10:33:20;51862.63;;;-142.34;31.28
12951;BME280;6540;50.858;7.232;2023-02-19T10:35:55;51822.25;;;-142.34;31.25
12951;BME280;6540;50.858;7.232;2023-02-19T10:38:28;51842.44;;;-142.34;31.27
12951;BME280;6540;50.858;7.232;2023-02-19T10:41:05;51860.59;;;-142.34;32.01
12951;BME280;6540;50.858;7.232;2023-02-19T10:43:34;51850.50;;;-142.34;30.96
12951;BME280;6540;50.858;7.232;2023-02-19T10:46:06;51818.22;;;-142.34;31.53
12951;BME280;6540;50.858;7.232;2023-02-19T10:48:45;51830.34;;;-142.34;32.41
12951;BME280;6540;50.858;7.232;2023-02-19T10:51:12;51866.66;;;-142.34;32.78
12951;BME280;6540;50.858;7.232;2023-02-19T10:53:50;51886.81;;;-142.34;32.30
12951;BME280;6540;50.858;7.232;2023-02-19T10:56:23;51844.47;;;-142.34;32.07
12951;BME280;6540;50.858;7.232;2023-02-19T10:58:49;51846.47;;;-142.34;32.54
12951;BME280;6540;50.858;7.232;2023-02-19T11:03:51;51907.00;;;-142.34;34.47
12951;BME280;6540;50.858;7.232;2023-02-19T11:06:19;51880.78;;;-142.34;32.54
12951;BME280;6540;50.858;7.232;2023-02-19T11:08:57;51902.97;;;-142.34;33.96
12951;BME280;6540;50.858;7.232;2023-02-19T11:11:44;51866.66;;;-142.34;33.80
12951;BME280;6540;50.858;7.232;2023-02-19T11:14:17;51852.53;;;-142.34;33.39
12951;BME280;6540;50.858;7.232;2023-02-19T11:16:44;51882.78;;;-142.34;33.90
12951;BME280;6540;50.858;7.232;2023-02-19T11:19:27;51894.88;;;-142.34;32.47
12951;BME280;6540;50.858;7.232;2023-02-19T11:21:53;51917.06;;;-142.34;33.87
12951;BME280;6540;50.858;7.232;2023-02-19T11:24:33;51862.63;;;-142.34;35.30
12951;BME280;6540;50.858;7.232;2023-02-19T11:27:04;51862.63;;;-142.34;35.93
12951;BME280;6540;50.858;7.232;2023-02-19T11:29:30;51888.84;;;-142.34;32.38
12951;BME280;6540;50.858;7.232;2023-02-19T11:32:22;51870.69;;;-142.34;33.54
12951;BME280;6540;50.858;7.232;2023-02-19T11:34:48;51884.81;;;-142.34;32.91
12951;BME280;6540;50.858;7.232;2023-02-19T11:37:15;51858.56;;;-142.34;31.91
12951;BME280;6540;50.858;7.232;2023-02-19T11:39:45;51842.44;;;-142.34;32.19
12951;BME280;6540;50.858;7.232;2023-02-19T11:50:25;51830.34;;;-142.34;30.96
12951;BME280;6540;50.858;7.232;2023-02-19T11:58:54;51858.56;;;-142.34;32.05
12951;BME280;6540;50.858;7.232;2023-02-19T12:07:16;51858.56;;;-142.34;32.31
12951;BME280;6540;50.858;7.232;2023-02-19T12:13:11;51890.84;;;-142.34;33.02
12951;BME280;6540;50.858;7.232;2023-02-19T12:16:03;51848.50;;;-142.34;33.58
12951;BME280;6540;50.858;7.232;2023-02-19T12:29:44;51842.44;;;-142.34;33.75
12951;BME280;6540;50.858;7.232;2023-02-19T12:43:26;51874.72;;;-142.34;32.87
12951;BME280;6540;50.858;7.232;2023-02-19T12:45:56;51894.88;;;-142.34;31.60
12951;BME280;6540;50.858;7.232;2023-02-19T12:48:28;51826.31;;;-142.34;30.56
12951;BME280;6540;50.858;7.232;2023-02-19T12:51:01;51842.44;;;-142.34;31.71
12951;BME280;6540;50.858;7.232;2023-02-19T12:53:38;51892.88;;;-142.34;32.52
12951;BME280;6540;50.858;7.232;2023-02-19T12:56:11;51858.56;;;-142.34;33.03
12951;BME280;6540;50.858;7.232;2023-02-19T12:58:43;51850.50;;;-142.34;32.33
12951;BME280;6540;50.858;7.232;2023-02-19T13:01:14;51872.69;;;-142.34;32.46
12951;BME280;6540;50.858;7.232;2023-02-19T13:09:42;51878.75;;;-142.34;32.17
12951;BME280;6540;50.858;7.232;2023-02-19T13:12:14;51860.59;;;-142.34;31.95
12951;BME280;6540;50.858;7.232;2023-02-19T13:14:43;51878.75;;;-142.34;30.91
12951;BME280;6540;50.858;7.232;2023-02-19T13:19:51;51874.72;;;-142.34;31.48
12951;BME280;6540;50.858;7.232;2023-02-19T13:22:26;51878.75;;;-142.34;32.71
12951;BME280;6540;50.858;7.232;2023-02-19T13:25:13;51824.28;;;-142.34;33.12
12951;BME280;6540;50.858;7.232;2023-02-19T13:30:47;51900.94;;;-142.34;32.33
12951;BME280;6540;50.858;7.232;2023-02-19T13:36:13;51886.81;;;-142.34;33.79
12951;BME280;6540;50.858;7.232;2023-02-19T13:38:45;51927.16;;;-142.34;34.45
12951;BME280;6540;50.858;7.232;2023-02-19T13:41:25;51904.97;;;-142.34;33.38
12951;BME280;6540;50.858;7.232;2023-02-19T13:44:02;51917.06;;;-142.34;33.10
12951;BME280;6540;50.858;7.232;2023-02-19T13:46:35;51870.69;;;-142.34;33.92
12951;BME280;6540;50.858;7.232;2023-02-19T13:49:44;51907.00;;;-142.34;33.58
12951;BME280;6540;50.858;7.232;2023-02-19T14:01:05;51921.13;;;-142.34;33.21
12951;BME280;6540;50.858;7.232;2023-02-19T14:04:07;51919.09;;;-142.34;34.79
12951;BME280;6540;50.858;7.232;2023-02-19T14:12:17;51907.00;;;-142.34;33.91
12951;BME280;6540;50.858;7.232;2023-02-19T14:33:09;51870.69;;;-142.34;32.48
12951;BME280;6540;50.858;7.232;2023-02-19T14:35:38;51862.63;;;-142.34;32.31
12951;BME280;6540;50.858;7.232;2023-02-19T14:38:05;51874.72;;;-142.34;32.18
12951;BME280;6540;50.858;7.232;2023-02-19T14:40:35;51862.63;;;-142.34;32.91
12951;BME280;6540;50.858;7.232;2023-02-19T14:43:03;51882.78;;;-142.34;33.18
12951;BME280;6540;50.858;7.232;2023-02-19T14:45:36;51882.78;;;-142.34;31.94
12951;BME280;6540;50.858;7.232;2023-02-19T14:48:05;51884.81;;;-142.34;32.73
12951;BME280;6540;50.858;7.232;2023-02-19T14:50:33;51858.56;;;-142.34;32.31
12951;BME280;6540;50.858;7.232;2023-02-19T14:53:02;51876.72;;;-142.34;32.74
12951;BME280;6540;50.858;7.232;2023-02-19T14:55:31;51886.81;;;-142.34;33.45
12951;BME280;6540;50.858;7.232;2023-02-19T14:58:00;51882.78;;;-142.34;33.47
12951;BME280;6540;50.858;7.232;2023-02-19T15:00:37;51866.66;;;-142.34;31.38
12951;BME280;6540;50.858;7.232;2023-02-19T15:03:03;51902.97;;;-142.34;34.33
12951;BME280;6540;50.858;7.232;2023-02-19T15:05:35;51907.00;;;-142.34;33.28
12951;BME280;6540;50.858;7.232;2023-02-19T15:08:11;51886.81;;;-142.34;31.75
12951;BME280;6540;50.858;7.232;2023-02-19T15:10:41;51878.75;;;-142.34;34.19
12951;BME280;6540;50.858;7.232;2023-02-19T15:13:08;51878.75;;;-142.34;32.04